createdAt,value
2019-05-16T00:01:03.125Z,11.51
2019-05-16T00:03:34.109Z,11.56
2019-05-16T00:06:08.438Z,11.59
2019-05-16T00:08:38.998Z,11.62
2019-05-16T00:11:09.989Z,11.65
2019-05-16T00:13:40.990Z,11.67
2019-05-16T00:16:11.877Z,11.68
2019-05-16T00:18:42.934Z,11.73
2019-05-16T00:21:13.960Z,11.78
2019-05-16T00:23:45.008Z,11.79
2019-05-16T00:26:15.968Z,11.79
2019-05-16T00:28:48.503Z,11.80
2019-05-16T00:31:19.641Z,11.83
2019-05-16T00:33:50.623Z,11.84
2019-05-16T00:36:21.638Z,11.84
2019-05-16T00:38:52.620Z,11.78
2019-05-16T00:41:23.495Z,11.72
2019-05-16T00:43:54.475Z,11.67
2019-05-16T00:46:27.816Z,11.66
2019-05-16T00:48:59.020Z,11.68
2019-05-16T00:51:30.662Z,11.61
2019-05-16T00:54:01.684Z,11.60
2019-05-16T00:56:32.610Z,11.62
2019-05-16T00:59:03.592Z,11.64
2019-05-16T01:01:34.536Z,11.65
2019-05-16T01:04:08.026Z,11.56
2019-05-16T01:06:39.074Z,11.55
2019-05-16T01:09:10.052Z,11.43
2019-05-16T01:11:41.122Z,11.37
2019-05-16T01:14:12.157Z,11.39
2019-05-16T01:16:43.182Z,11.44
2019-05-16T01:19:14.227Z,11.42
2019-05-16T01:21:45.235Z,11.40
2019-05-16T01:24:18.624Z,11.32
2019-05-16T01:26:48.868Z,11.33
2019-05-16T01:29:19.903Z,11.32
2019-05-16T01:31:50.944Z,11.18
2019-05-16T01:34:22.074Z,11.19
2019-05-16T01:36:53.012Z,11.16
2019-05-16T01:39:23.953Z,11.18
2019-05-16T01:41:54.947Z,11.05
2019-05-16T01:44:25.945Z,11.04
2019-05-16T01:46:58.561Z,11.00
2019-05-16T01:49:32.597Z,11.06
2019-05-16T01:52:03.876Z,11.07
2019-05-16T01:54:34.897Z,11.06
2019-05-16T01:57:08.101Z,11.07
2019-05-16T01:59:38.994Z,11.06
2019-05-16T02:02:09.903Z,11.12
2019-05-16T02:04:40.884Z,11.15
2019-05-16T02:07:11.904Z,11.14
2019-05-16T02:09:42.914Z,11.14
2019-05-16T02:12:13.887Z,11.10
2019-05-16T02:14:44.839Z,11.09
2019-05-16T02:17:18.138Z,11.10
2019-05-16T02:19:48.673Z,11.06
2019-05-16T02:22:19.760Z,11.04
2019-05-16T02:24:50.704Z,11.04
2019-05-16T02:27:21.632Z,10.99
2019-05-16T02:29:52.536Z,10.93
2019-05-16T02:32:23.548Z,10.92
2019-05-16T02:34:54.660Z,10.91
2019-05-16T02:37:33.370Z,10.85
2019-05-16T02:40:01.399Z,10.82
2019-05-16T02:42:33.755Z,10.83
2019-05-16T02:45:04.081Z,10.79
2019-05-16T02:47:35.417Z,10.71
2019-05-16T02:50:06.726Z,10.65
2019-05-16T02:52:41.018Z,10.66
2019-05-16T02:55:11.694Z,10.64
2019-05-16T02:57:43.124Z,10.67
2019-05-16T03:00:14.085Z,10.68
2019-05-16T03:02:45.543Z,10.68
2019-05-16T03:05:16.560Z,10.71
2019-05-16T03:07:47.837Z,10.66
2019-05-16T03:10:20.305Z,10.64
2019-05-16T03:12:52.047Z,10.66
2019-05-16T03:15:23.106Z,10.62
2019-05-16T03:17:54.060Z,10.60
2019-05-16T03:20:25.037Z,10.59
2019-05-16T03:22:57.246Z,10.59
2019-05-16T03:30:35.755Z,10.53
2019-05-16T03:33:07.248Z,10.55
2019-05-16T03:35:43.913Z,10.43
2019-05-16T03:38:12.241Z,10.48
2019-05-16T03:40:43.333Z,10.43
2019-05-16T03:43:14.237Z,10.40
2019-05-16T03:45:45.274Z,10.40
2019-05-16T03:48:16.251Z,10.41
2019-05-16T03:50:50.478Z,10.33
2019-05-16T03:53:21.195Z,10.35
2019-05-16T03:55:52.358Z,10.35
2019-05-16T03:58:23.317Z,10.31
2019-05-16T04:00:55.900Z,10.39
2019-05-16T04:06:01.080Z,10.37
2019-05-16T04:08:30.717Z,10.36
2019-05-16T04:11:01.363Z,10.34
2019-05-16T04:16:04.984Z,10.40
2019-05-16T04:21:06.627Z,10.48
2019-05-16T04:26:11.636Z,10.43
2019-05-16T04:31:15.201Z,10.49
2019-05-16T04:36:16.555Z,10.50
2019-05-16T04:41:21.159Z,10.47
2019-05-16T04:48:50.804Z,10.35
2019-05-16T04:53:51.063Z,10.32
2019-05-16T04:56:25.051Z,10.39
2019-05-16T04:58:53.183Z,10.45
2019-05-16T05:01:41.051Z,10.41
2019-05-16T05:04:14.390Z,10.27
2019-05-16T05:06:42.241Z,10.42
2019-05-16T05:09:32.393Z,10.46
2019-05-16T05:12:04.516Z,10.49
2019-05-16T05:14:36.584Z,10.47
2019-05-16T05:17:10.470Z,10.48
2019-05-16T05:19:41.364Z,10.54
2019-05-16T05:22:12.564Z,10.55
2019-05-16T05:24:43.487Z,10.59
2019-05-16T05:27:14.481Z,10.65
2019-05-16T05:29:46.004Z,10.64
2019-05-16T05:32:17.044Z,10.69
2019-05-16T05:34:50.197Z,10.68
2019-05-16T05:37:20.868Z,10.69
2019-05-16T05:39:51.889Z,10.73
2019-05-16T05:42:22.871Z,10.78
2019-05-16T05:44:53.838Z,10.80
2019-05-16T05:47:24.833Z,10.76
2019-05-16T05:49:55.729Z,10.71
2019-05-16T05:52:26.753Z,10.64
2019-05-16T05:55:00.572Z,10.65
2019-05-16T05:57:30.409Z,10.72
2019-05-16T06:00:01.534Z,10.79
2019-05-16T06:02:32.503Z,10.84
2019-05-16T06:05:03.518Z,10.89
2019-05-16T06:07:34.444Z,10.96
2019-05-16T06:10:07.188Z,10.98
2019-05-16T06:12:40.556Z,10.96
2019-05-16T06:15:12.960Z,11.10
2019-05-16T06:17:44.564Z,11.27
2019-05-16T06:20:15.659Z,11.43
2019-05-16T06:22:46.743Z,11.60
2019-05-16T06:25:22.204Z,11.73
2019-05-16T06:27:51.121Z,11.90
2019-05-16T06:30:22.321Z,11.83
2019-05-16T06:32:53.271Z,11.79
2019-05-16T06:35:24.285Z,11.85
2019-05-16T06:37:55.648Z,11.82
2019-05-16T06:40:26.689Z,12.02
2019-05-16T06:43:00.223Z,12.25
2019-05-16T06:45:32.059Z,12.37
2019-05-16T06:48:03.235Z,12.33
2019-05-16T06:50:34.290Z,12.41
2019-05-16T06:53:06.230Z,12.32
2019-05-16T06:55:37.309Z,12.25
2019-05-16T06:58:12.031Z,12.31
2019-05-16T07:00:43.252Z,12.34
2019-05-16T07:03:14.457Z,12.33
2019-05-16T07:05:45.724Z,12.44
2019-05-16T07:08:17.207Z,12.63
2019-05-16T07:10:50.475Z,12.70
2019-05-16T07:13:20.950Z,12.90
2019-05-16T07:15:51.847Z,12.83
2019-05-16T07:18:22.782Z,12.61
2019-05-16T07:20:53.875Z,12.76
2019-05-16T07:23:24.947Z,12.86
2019-05-16T07:25:56.043Z,12.83
2019-05-16T07:28:27.103Z,12.68
2019-05-16T07:31:00.479Z,12.76
2019-05-16T07:33:31.418Z,12.58
2019-05-16T07:36:02.525Z,12.47
2019-05-16T07:38:33.577Z,12.53
2019-05-16T07:41:04.757Z,12.34
2019-05-16T07:43:35.825Z,12.27
2019-05-16T07:46:06.760Z,12.06
2019-05-16T07:48:40.172Z,12.07
2019-05-16T07:51:10.643Z,12.24
2019-05-16T07:53:41.655Z,12.03
2019-05-16T07:56:12.634Z,12.04
2019-05-16T07:58:43.634Z,12.02
2019-05-16T08:01:14.669Z,12.02
2019-05-16T08:03:46.654Z,12.22
2019-05-16T08:06:20.157Z,12.26
2019-05-16T08:08:51.310Z,12.35
2019-05-16T08:11:30.450Z,12.27
2019-05-16T08:14:01.101Z,12.39
2019-05-16T08:16:32.283Z,12.52
2019-05-16T08:19:03.377Z,12.63
2019-05-16T08:21:34.395Z,12.51
2019-05-16T08:24:08.070Z,12.50
2019-05-16T08:26:42.919Z,12.56
2019-05-16T08:29:13.406Z,12.46
2019-05-16T08:31:52.359Z,12.56
2019-05-16T08:34:21.953Z,12.69
2019-05-16T08:36:52.881Z,12.47
2019-05-16T08:39:23.857Z,12.70
2019-05-16T08:41:54.906Z,12.90
2019-05-16T08:44:26.188Z,13.06
2019-05-16T08:46:58.275Z,12.89
2019-05-16T08:49:30.774Z,12.48
2019-05-16T08:52:01.943Z,12.90
2019-05-16T08:54:32.947Z,12.93
2019-05-16T08:57:25.560Z,13.27
2019-05-16T08:59:36.767Z,13.45
2019-05-16T09:02:12.049Z,13.63
2019-05-16T09:04:44.141Z,13.49
2019-05-16T09:07:14.228Z,13.82
2019-05-16T09:09:51.156Z,13.98
2019-05-16T09:12:18.205Z,14.37
2019-05-16T09:14:49.476Z,14.93
2019-05-16T09:17:21.073Z,15.47
2019-05-16T09:19:52.406Z,15.74
2019-05-16T09:22:23.338Z,15.35
2019-05-16T09:24:57.413Z,15.77
2019-05-16T09:27:27.676Z,16.01
2019-05-16T09:29:58.621Z,15.78
2019-05-16T09:35:01.177Z,16.06
2019-05-16T09:37:29.314Z,15.82
2019-05-16T09:40:00.327Z,15.88
2019-05-16T09:42:31.465Z,15.72
2019-05-16T09:45:02.656Z,15.78
2019-05-16T09:47:33.600Z,15.80
2019-05-16T09:50:06.879Z,15.91
2019-05-16T09:52:38.115Z,16.00
2019-05-16T09:55:09.179Z,15.63
2019-05-16T09:57:40.260Z,15.43
2019-05-16T10:02:41.042Z,15.59
2019-05-16T10:05:13.509Z,15.72
2019-05-16T10:07:47.004Z,15.76
2019-05-16T10:10:17.651Z,15.69
2019-05-16T10:12:48.824Z,15.58
2019-05-16T10:15:19.857Z,15.45
2019-05-16T10:17:50.956Z,15.26
2019-05-16T10:20:22.273Z,15.07
2019-05-16T10:22:53.831Z,15.10
2019-05-16T10:25:27.721Z,14.71
2019-05-16T10:27:58.179Z,14.66
2019-05-16T10:30:29.112Z,15.12
2019-05-16T10:33:01.002Z,15.29
2019-05-16T10:35:32.271Z,15.56
2019-05-16T10:38:03.315Z,15.60
2019-05-16T10:40:36.663Z,15.75
2019-05-16T10:43:07.591Z,15.79
2019-05-16T10:45:38.753Z,15.83
2019-05-16T10:48:10.063Z,15.88
2019-05-16T10:50:41.164Z,15.64
2019-05-16T10:53:28.432Z,15.18
2019-05-16T10:55:47.405Z,15.26
2019-05-16T10:58:35.086Z,15.40
2019-05-16T11:01:19.515Z,15.46
2019-05-16T11:03:23.637Z,15.10
2019-05-16T11:06:03.079Z,15.08
2019-05-16T11:08:28.035Z,15.20
2019-05-16T11:10:59.075Z,15.27
2019-05-16T11:13:30.138Z,15.20
2019-05-16T11:16:01.128Z,15.25
2019-05-16T11:18:32.002Z,15.26
2019-05-16T11:21:03.113Z,15.13
2019-05-16T11:23:36.585Z,15.00
2019-05-16T11:26:06.857Z,14.98
2019-05-16T11:28:37.880Z,15.11
2019-05-16T11:31:08.877Z,14.91
2019-05-16T11:33:39.892Z,15.11
2019-05-16T11:36:12.913Z,15.07
2019-05-16T11:38:43.463Z,15.03
2019-05-16T11:41:16.570Z,14.91
2019-05-16T11:43:47.476Z,15.09
2019-05-16T11:46:18.641Z,15.35
2019-05-16T11:48:49.666Z,15.30
2019-05-16T11:51:20.852Z,15.23
2019-05-16T11:53:51.871Z,15.11
2019-05-16T11:56:22.922Z,15.26
2019-05-16T11:58:53.915Z,15.23
2019-05-16T12:01:27.295Z,15.11
2019-05-16T12:03:59.911Z,15.23
2019-05-16T12:06:31.021Z,15.17
2019-05-16T12:09:02.116Z,15.22
2019-05-16T12:11:33.062Z,15.03
2019-05-16T12:14:04.041Z,14.98
2019-05-16T12:16:35.055Z,15.18
2019-05-16T12:19:06.848Z,15.02
2019-05-16T12:21:38.389Z,14.89
2019-05-16T12:24:09.331Z,14.83
2019-05-16T12:27:11.816Z,14.75
2019-05-16T12:32:51.431Z,14.28
2019-05-16T12:36:17.575Z,14.30
2019-05-16T12:42:31.937Z,14.37
2019-05-16T13:07:09.985Z,14.91
2019-05-16T13:09:41.109Z,14.97
2019-05-16T13:12:12.136Z,15.17
2019-05-16T13:14:43.143Z,15.24
2019-05-16T13:17:16.537Z,14.63
2019-05-16T13:19:48.275Z,14.80
2019-05-16T13:22:19.737Z,14.92
2019-05-16T13:24:50.815Z,15.02
2019-05-16T13:27:23.191Z,15.11
2019-05-16T13:29:54.580Z,15.11
2019-05-16T13:32:27.073Z,15.21
2019-05-16T13:34:59.214Z,15.26
2019-05-16T13:37:29.876Z,15.25
2019-05-16T13:40:01.196Z,15.24
2019-05-16T13:42:32.645Z,15.39
2019-05-16T13:45:07.610Z,15.34
2019-05-16T13:47:38.606Z,15.28
2019-05-16T13:50:12.073Z,15.36
2019-05-16T13:52:42.448Z,15.22
2019-05-16T13:55:13.452Z,15.09
2019-05-16T13:57:44.453Z,15.26
2019-05-16T14:00:17.375Z,15.29
2019-05-16T14:02:48.350Z,15.43
2019-05-16T14:05:19.354Z,15.45
2019-05-16T14:07:57.096Z,15.48
2019-05-16T14:10:29.725Z,15.40
2019-05-16T14:12:59.818Z,15.26
2019-05-16T14:15:36.531Z,15.25
2019-05-16T14:18:07.954Z,14.88
2019-05-16T14:20:39.158Z,14.87
2019-05-16T14:23:11.205Z,14.77
2019-05-16T14:25:43.106Z,14.53
2019-05-16T14:28:16.954Z,14.56
2019-05-16T14:30:47.024Z,14.70
2019-05-16T14:33:18.040Z,14.67
2019-05-16T14:35:49.127Z,14.60
2019-05-16T14:38:20.321Z,14.50
2019-05-16T14:40:51.630Z,14.42
2019-05-16T14:43:22.684Z,14.29
2019-05-16T14:45:54.596Z,14.37
2019-05-16T14:48:27.898Z,14.27
2019-05-16T14:50:58.289Z,14.45
2019-05-16T14:53:29.324Z,14.54
2019-05-16T14:56:00.343Z,14.28
2019-05-16T14:58:31.400Z,14.38
2019-05-16T15:01:02.618Z,14.60
2019-05-16T15:03:40.324Z,14.58
2019-05-16T15:06:18.199Z,14.47
2019-05-16T15:08:56.583Z,14.49
2019-05-16T15:11:29.437Z,14.39
2019-05-16T15:14:01.993Z,14.31
2019-05-16T15:16:33.174Z,14.38
2019-05-16T15:19:04.475Z,14.38
2019-05-16T15:21:42.312Z,14.52
2019-05-16T15:24:14.107Z,14.48
2019-05-16T15:26:48.883Z,14.30
2019-05-16T15:29:23.709Z,14.25
2019-05-16T15:31:54.543Z,14.41
2019-05-16T15:37:03.202Z,14.33
2019-05-16T15:39:37.373Z,14.21
2019-05-16T15:44:39.980Z,14.31
2019-05-16T15:49:40.370Z,14.37
2019-05-16T15:52:11.470Z,14.34
2019-05-16T15:59:40.213Z,14.08
2019-05-16T16:02:14.000Z,14.14
2019-05-16T16:04:47.589Z,14.12
2019-05-16T16:07:21.108Z,14.15
2019-05-16T16:12:23.262Z,14.13
2019-05-16T16:17:31.527Z,14.15
2019-05-16T16:22:37.529Z,13.97
2019-05-16T16:25:09.186Z,13.80
2019-05-16T16:27:44.162Z,13.83
2019-05-16T16:30:18.454Z,13.64
2019-05-16T16:35:17.502Z,13.50
2019-05-16T16:40:18.826Z,13.46
2019-05-16T16:50:18.116Z,12.88
2019-05-16T16:52:50.079Z,13.10
2019-05-16T17:00:22.949Z,12.97
2019-05-16T17:05:23.315Z,12.79
2019-05-16T17:07:57.503Z,12.67
2019-05-16T17:10:47.814Z,12.79
2019-05-16T17:15:50.809Z,12.77
2019-05-16T17:20:51.595Z,12.72
2019-05-16T17:25:51.824Z,12.73
2019-05-16T17:28:24.696Z,12.83
2019-05-16T17:30:58.847Z,12.78
2019-05-16T17:33:30.692Z,12.80
2019-05-16T17:36:21.259Z,12.60
2019-05-16T17:38:52.963Z,12.54
2019-05-16T17:41:27.189Z,12.46
2019-05-16T17:44:18.612Z,12.51
2019-05-16T17:49:30.137Z,12.41
2019-05-16T17:51:49.567Z,11.99
2019-05-16T17:56:50.569Z,12.14
2019-05-16T18:01:56.929Z,12.12
2019-05-16T18:07:02.260Z,11.94
2019-05-16T18:10:04.534Z,11.90
2019-05-16T18:12:41.406Z,12.00
2019-05-16T18:15:14.036Z,11.93
2019-05-16T18:20:26.577Z,12.00
2019-05-16T18:23:06.982Z,12.12
2019-05-16T18:25:36.983Z,12.08
2019-05-16T18:28:08.198Z,12.06
2019-05-16T18:30:39.072Z,12.06
2019-05-16T18:33:10.256Z,11.97
2019-05-16T18:35:41.428Z,12.07
2019-05-16T18:38:12.860Z,12.00
2019-05-16T18:40:44.269Z,11.98
2019-05-16T18:43:16.619Z,12.02
2019-05-16T18:45:47.877Z,12.07
2019-05-16T18:48:18.889Z,12.14
2019-05-16T18:50:49.914Z,12.07
2019-05-16T18:53:20.837Z,12.10
2019-05-16T18:55:51.933Z,11.94
2019-05-16T18:58:23.051Z,11.99
2019-05-16T19:00:54.113Z,12.08
2019-05-16T19:03:27.093Z,12.09
2019-05-16T19:05:57.796Z,12.12
2019-05-16T19:08:28.827Z,12.16
2019-05-16T19:11:00.224Z,12.06
2019-05-16T19:13:31.236Z,12.08
2019-05-16T19:18:31.227Z,11.93
2019-05-16T19:23:32.497Z,11.91
2019-05-16T19:28:36.768Z,11.89
2019-05-16T19:31:07.317Z,11.91
2019-05-16T19:33:41.231Z,11.96
2019-05-16T19:36:12.320Z,11.97
2019-05-16T19:38:46.626Z,11.97
2019-05-16T19:41:19.364Z,11.95
2019-05-16T19:43:50.476Z,11.97
2019-05-16T19:46:23.461Z,11.94
2019-05-16T19:48:54.105Z,11.94
2019-05-16T19:51:26.913Z,11.93
2019-05-16T19:53:57.894Z,11.93
2019-05-16T19:56:28.932Z,11.94
2019-05-16T19:58:59.938Z,11.91
2019-05-16T20:01:31.049Z,11.94
2019-05-16T20:04:02.136Z,11.76
2019-05-16T20:06:33.196Z,11.57
2019-05-16T20:09:07.006Z,11.72
2019-05-16T20:11:37.174Z,11.81
2019-05-16T20:14:08.549Z,11.85
2019-05-16T20:19:18.006Z,11.92
2019-05-16T20:21:58.020Z,11.92
2019-05-16T20:29:32.208Z,11.92
2019-05-16T20:32:03.435Z,11.91
2019-05-16T20:35:49.557Z,11.92
2019-05-16T20:44:41.388Z,11.49
2019-05-16T20:47:12.831Z,11.32
2019-05-16T20:49:43.959Z,11.17
2019-05-16T20:52:17.310Z,11.10
2019-05-16T20:54:46.600Z,11.03
2019-05-16T20:57:21.946Z,10.98
2019-05-16T21:02:21.136Z,10.89
2019-05-16T21:04:52.107Z,11.00
2019-05-16T21:07:23.095Z,11.02
2019-05-16T21:09:54.087Z,11.08
2019-05-16T21:12:26.571Z,11.10
2019-05-16T21:14:58.671Z,11.06
2019-05-16T21:17:29.908Z,10.93
2019-05-16T21:20:00.882Z,10.96
2019-05-16T21:22:31.809Z,11.02
2019-05-16T21:25:02.846Z,10.94
2019-05-16T21:27:33.972Z,10.84
2019-05-16T21:30:07.370Z,10.91
2019-05-16T21:32:38.188Z,10.96
2019-05-16T21:35:09.201Z,10.87
2019-05-16T21:37:40.253Z,10.78
2019-05-16T21:40:12.095Z,10.69
2019-05-16T21:42:43.125Z,10.64
2019-05-16T21:45:14.171Z,10.80
2019-05-16T21:47:47.050Z,10.81
2019-05-16T21:50:19.179Z,10.85
2019-05-16T21:52:50.654Z,10.79
2019-05-16T21:55:22.256Z,10.72
2019-05-16T21:57:53.773Z,10.83
2019-05-16T22:00:37.492Z,10.71
2019-05-16T22:03:08.259Z,10.84
2019-05-16T22:05:39.287Z,10.73
2019-05-16T22:08:11.888Z,10.83
2019-05-16T22:10:43.111Z,10.90
2019-05-16T22:13:14.093Z,10.76
2019-05-16T22:15:46.423Z,10.81
2019-05-16T22:18:17.549Z,10.94
2019-05-16T22:20:49.395Z,10.97
2019-05-16T22:23:20.759Z,10.93
2019-05-16T22:25:51.999Z,10.85
2019-05-16T22:28:23.269Z,10.78
2019-05-16T22:30:58.133Z,10.76
2019-05-16T22:33:27.830Z,10.88
2019-05-16T22:35:58.763Z,10.90
2019-05-16T22:38:29.689Z,11.00
2019-05-16T22:41:01.028Z,11.01
2019-05-16T22:43:31.782Z,11.00
2019-05-16T22:46:02.947Z,10.96
2019-05-16T22:48:33.976Z,10.80
2019-05-16T22:51:07.173Z,10.84
2019-05-16T22:53:38.330Z,10.58
2019-05-16T22:56:09.235Z,10.61
2019-05-16T22:58:40.251Z,10.60
2019-05-16T23:01:11.239Z,10.57
2019-05-16T23:03:42.267Z,10.56
2019-05-16T23:06:13.267Z,10.62
2019-05-16T23:08:44.539Z,10.73
2019-05-16T23:11:16.344Z,10.74
2019-05-16T23:13:48.740Z,10.71
2019-05-16T23:16:19.657Z,10.51
2019-05-16T23:18:50.630Z,10.42
2019-05-16T23:21:21.680Z,10.45
2019-05-16T23:23:52.658Z,10.55
2019-05-16T23:26:26.902Z,10.50
2019-05-16T23:28:58.068Z,10.48
2019-05-16T23:31:28.992Z,10.48
2019-05-16T23:33:59.877Z,10.53
2019-05-16T23:36:36.836Z,10.60
2019-05-16T23:39:08.412Z,10.50
2019-05-16T23:41:39.390Z,10.27
2019-05-16T23:44:10.367Z,10.41
2019-05-16T23:46:41.384Z,10.35
2019-05-16T23:49:12.226Z,10.26
2019-05-16T23:51:43.178Z,10.31
2019-05-16T23:54:14.167Z,10.35
2019-05-16T23:56:46.567Z,10.29
2019-05-16T23:59:17.519Z,10.23
